Time,TemperatureF,DewpointF,PressureIn,WindDirection,WindDirectionDegrees,WindSpeedMPH,WindSpeedGustMPH,Humidity,HourlyPrecipIn,Conditions,Clouds,dailyrainin,SoftwareType,DateUTC
2013-02-09 00:13:00,29.7,28.0,30.22,SE,138,13.0,-999.0,93,-99.99,,,0.00,weatherlink.com 1.10,2013-02-09 06:13:00,
2013-02-09 00:28:00,30.3,28.0,30.22,SE,140,5.0,-999.0,92,-99.99,,,0.00,weatherlink.com 1.10,2013-02-09 06:28:00,
2013-02-09 00:43:00,30.5,29.0,30.21,SE,144,12.0,-999.0,92,-99.99,,,0.00,weatherlink.com 1.10,2013-02-09 06:43:00,
2013-02-09 00:58:00,30.5,29.0,30.21,SE,130,10.0,-999.0,92,-99.99,,,0.00,weatherlink.com 1.10,2013-02-09 06:58:00,
2013-02-09 01:13:00,30.5,29.0,30.20,SSE,153,12.0,-999.0,92,-99.99,,,0.00,weatherlink.com 1.10,2013-02-09 07:13:00,
2013-02-09 01:28:00,30.5,29.0,30.20,SE,138,10.0,-999.0,92,-99.99,,,0.00,weatherlink.com 1.10,2013-02-09 07:28:00,
2013-02-09 01:43:00,30.5,29.0,30.19,SE,126,10.0,-999.0,92,-99.99,,,0.00,weatherlink.com 1.10,2013-02-09 07:43:00,
2013-02-09 01:58:00,30.6,29.0,30.19,SSE,148,12.0,-999.0,92,-99.99,,,0.00,weatherlink.com 1.10,2013-02-09 07:58:00,
2013-02-09 02:13:00,30.6,29.0,30.19,SE,142,8.0,-999.0,92,-99.99,,,0.00,weatherlink.com 1.10,2013-02-09 08:13:00,
2013-02-09 02:28:00,30.7,29.0,30.18,SSE,166,7.0,-999.0,92,-99.99,,,0.00,weatherlink.com 1.10,2013-02-09 08:28:00,
2013-02-09 02:43:00,30.8,29.0,30.18,SSE,147,11.0,-999.0,92,-99.99,,,0.00,weatherlink.com 1.10,2013-02-09 08:43:00,
2013-02-09 02:58:00,31.0,29.0,30.18,SE,133,6.0,-999.0,91,-99.99,,,0.00,weatherlink.com 1.10,2013-02-09 08:58:00,
2013-02-09 03:13:00,31.1,29.0,30.18,SE,126,9.0,-999.0,91,-99.99,,,0.00,weatherlink.com 1.10,2013-02-09 09:13:00,
2013-02-09 03:28:00,31.1,29.0,30.17,SE,140,6.0,-999.0,91,-99.99,,,0.00,weatherlink.com 1.10,2013-02-09 09:28:00,
2013-02-09 03:43:00,31.1,29.0,30.17,SE,143,10.0,-999.0,91,-99.99,,,0.00,weatherlink.com 1.10,2013-02-09 09:43:00,
2013-02-09 03:58:00,31.1,29.0,30.16,SE,144,5.0,-999.0,91,-99.99,,,0.00,weatherlink.com 1.10,2013-02-09 09:58:00,
2013-02-09 04:13:00,31.2,29.0,30.15,SSE,148,5.0,-999.0,91,-99.99,,,0.00,weatherlink.com 1.10,2013-02-09 10:13:00,
2013-02-09 04:28:00,31.2,29.0,30.14,SE,126,13.0,-999.0,91,-99.99,,,0.00,weatherlink.com 1.10,2013-02-09 10:28:00,
2013-02-09 04:43:00,31.3,29.0,30.13,SE,126,13.0,-999.0,91,-99.99,,,0.00,weatherlink.com 1.10,2013-02-09 10:43:00,
2013-02-09 04:58:00,31.3,29.0,30.13,SE,126,13.0,-999.0,91,-99.99,,,0.00,weatherlink.com 1.10,2013-02-09 10:58:00,
2013-02-09 05:13:00,31.4,29.0,30.13,SE,133,6.0,-999.0,91,-99.99,,,0.00,weatherlink.com 1.10,2013-02-09 11:13:00,
2013-02-09 05:28:00,31.5,29.0,30.12,SSE,149,10.0,-999.0,91,-99.99,,,0.00,weatherlink.com 1.10,2013-02-09 11:28:00,
2013-02-09 05:43:00,31.5,29.0,30.12,SE,138,13.0,-999.0,91,-99.99,,,0.00,weatherlink.com 1.10,2013-02-09 11:43:00,
2013-02-09 05:58:00,31.6,29.0,30.11,SE,134,9.0,-999.0,90,-99.99,,,0.00,weatherlink.com 1.10,2013-02-09 11:58:00,
2013-02-09 06:13:00,31.5,29.0,30.11,SE,144,5.0,-999.0,90,-99.99,,,0.00,weatherlink.com 1.10,2013-02-09 12:13:00,
2013-02-09 06:28:00,31.4,29.0,30.11,SE,125,14.0,-999.0,90,-99.99,,,0.00,weatherlink.com 1.10,2013-02-09 12:28:00,
2013-02-09 06:44:00,31.4,29.0,30.10,SE,146,7.0,-999.0,91,-99.99,,,0.00,weatherlink.com 1.10,2013-02-09 12:44:00,
2013-02-09 06:59:00,31.3,29.0,30.10,SE,126,14.0,-999.0,91,-99.99,,,0.00,weatherlink.com 1.10,2013-02-09 12:59:00,
2013-02-09 07:14:00,31.3,29.0,30.10,SE,135,13.0,-999.0,91,-99.99,,,0.00,weatherlink.com 1.10,2013-02-09 13:14:00,
2013-02-09 07:29:00,31.2,29.0,30.10,SE,128,15.0,-999.0,90,-99.99,,,0.00,weatherlink.com 1.10,2013-02-09 13:29:00,
2013-02-09 07:44:00,31.2,29.0,30.09,SE,138,7.0,-999.0,91,-99.99,,,0.00,weatherlink.com 1.10,2013-02-09 13:44:00,
2013-02-09 07:59:00,31.2,29.0,30.10,SE,145,5.0,-999.0,91,-99.99,,,0.00,weatherlink.com 1.10,2013-02-09 13:59:00,
2013-02-09 08:14:00,31.4,29.0,30.09,SE,138,7.0,-999.0,91,-99.99,,,0.00,weatherlink.com 1.10,2013-02-09 14:14:00,
2013-02-09 08:29:00,31.5,29.0,30.09,SE,126,5.0,-999.0,91,-99.99,,,0.00,weatherlink.com 1.10,2013-02-09 14:29:00,
2013-02-09 08:44:00,31.8,30.0,30.08,SSE,155,9.0,-999.0,91,-99.99,,,0.00,weatherlink.com 1.10,2013-02-09 14:44:00,
2013-02-09 08:59:00,32.1,30.0,30.08,SE,130,8.0,-999.0,90,-99.99,,,0.00,weatherlink.com 1.10,2013-02-09 14:59:00,
2013-02-09 09:14:00,32.5,30.0,30.08,SE,131,9.0,-999.0,90,-99.99,,,0.00,weatherlink.com 1.10,2013-02-09 15:14:00,
2013-02-09 09:29:00,33.0,30.0,30.08,SE,145,10.0,-999.0,89,-99.99,,,0.00,weatherlink.com 1.10,2013-02-09 15:29:00,
2013-02-09 09:44:00,34.0,31.0,30.07,SE,138,7.0,-999.0,88,-99.99,,,0.00,weatherlink.com 1.10,2013-02-09 15:44:00,
2013-02-09 09:59:00,34.7,31.0,30.07,SE,138,11.0,-999.0,87,-99.99,,,0.00,weatherlink.com 1.10,2013-02-09 15:59:00,
2013-02-09 10:14:00,35.9,32.0,30.07,SSE,149,4.0,-999.0,86,-99.99,,,0.00,weatherlink.com 1.10,2013-02-09 16:14:00,
2013-02-09 10:29:00,37.7,33.0,30.06,SSE,159,5.0,-999.0,84,-99.99,,,0.00,weatherlink.com 1.10,2013-02-09 16:29:00,
2013-02-09 10:45:00,39.9,34.0,30.05,SE,145,10.0,-999.0,80,-99.99,,,0.00,weatherlink.com 1.10,2013-02-09 16:45:00,
2013-02-09 10:59:00,40.9,35.0,30.05,SE,126,10.0,-999.0,78,-99.99,,,0.00,weatherlink.com 1.10,2013-02-09 16:59:00,
2013-02-09 11:14:00,42.2,35.0,30.04,SSE,155,6.0,-999.0,76,-99.99,,,0.00,weatherlink.com 1.10,2013-02-09 17:14:00,
2013-02-09 11:29:00,42.9,36.0,30.04,SSE,152,13.0,-999.0,75,-99.99,,,0.00,weatherlink.com 1.10,2013-02-09 17:29:00,
2013-02-09 11:44:00,43.7,36.0,30.03,SE,138,12.0,-999.0,75,-99.99,,,0.00,weatherlink.com 1.10,2013-02-09 17:44:00,
2013-02-09 11:59:00,44.1,36.0,30.02,SE,131,11.0,-999.0,74,-99.99,,,0.00,weatherlink.com 1.10,2013-02-09 17:59:00,
2013-02-09 12:15:00,43.9,36.0,30.00,ESE,120,14.0,-999.0,73,-99.99,,,0.00,weatherlink.com 1.10,2013-02-09 18:15:00,
2013-02-09 12:29:00,44.4,37.0,29.99,SE,130,10.0,-999.0,75,-99.99,,,0.00,weatherlink.com 1.10,2013-02-09 18:29:00,
2013-02-09 12:45:00,45.7,37.0,29.97,SE,132,10.0,-999.0,73,-99.99,,,0.00,weatherlink.com 1.10,2013-02-09 18:45:00,
2013-02-09 13:00:00,46.6,38.0,29.95,ESE,120,12.0,-999.0,71,-99.99,,,0.00,weatherlink.com 1.10,2013-02-09 19:00:00,
2013-02-09 13:15:00,47.7,38.0,29.94,ESE,120,16.0,-999.0,70,-99.99,,,0.00,weatherlink.com 1.10,2013-02-09 19:15:00,
2013-02-09 13:30:00,48.6,39.0,29.92,SE,138,12.0,-999.0,69,-99.99,,,0.00,weatherlink.com 1.10,2013-02-09 19:30:00,
2013-02-09 13:45:00,48.8,39.0,29.91,SE,140,6.0,-999.0,68,-99.99,,,0.00,weatherlink.com 1.10,2013-02-09 19:45:00,
2013-02-09 14:00:00,48.5,38.0,29.91,ESE,123,9.0,-999.0,68,-99.99,,,0.00,weatherlink.com 1.10,2013-02-09 20:00:00,
2013-02-09 14:15:00,48.3,39.0,29.90,ESE,123,10.0,-999.0,69,-99.99,,,0.00,weatherlink.com 1.10,2013-02-09 20:15:00,
2013-02-09 14:30:00,48.7,39.0,29.88,SE,130,11.0,-999.0,68,-99.99,,,0.00,weatherlink.com 1.10,2013-02-09 20:30:00,
2013-02-09 14:45:00,49.2,39.0,29.87,SE,131,6.0,-999.0,67,-99.99,,,0.00,weatherlink.com 1.10,2013-02-09 20:45:00,
2013-02-09 15:00:00,50.3,39.0,29.87,SE,127,11.0,-999.0,66,-99.99,,,0.00,weatherlink.com 1.10,2013-02-09 21:00:00,
2013-02-09 15:15:00,50.0,39.0,29.86,SE,138,10.0,-999.0,66,-99.99,,,0.00,weatherlink.com 1.10,2013-02-09 21:15:00,
2013-02-09 15:30:00,50.3,39.0,29.86,SE,136,11.0,-999.0,65,-99.99,,,0.00,weatherlink.com 1.10,2013-02-09 21:30:00,
2013-02-09 15:45:00,50.3,39.0,29.84,SE,131,10.0,-999.0,65,-99.99,,,0.00,weatherlink.com 1.10,2013-02-09 21:45:00,
2013-02-09 16:00:00,49.6,39.0,29.83,SE,137,12.0,-999.0,66,-99.99,,,0.00,weatherlink.com 1.10,2013-02-09 22:00:00,
2013-02-09 16:15:00,48.6,38.0,29.83,SSE,150,13.0,-999.0,68,-99.99,,,0.00,weatherlink.com 1.10,2013-02-09 22:15:00,
2013-02-09 16:30:00,47.7,38.0,29.84,SSE,158,5.0,-999.0,69,-99.99,,,0.00,weatherlink.com 1.10,2013-02-09 22:30:00,
2013-02-09 16:45:00,47.3,38.0,29.83,SE,140,13.0,-999.0,70,-99.99,,,0.00,weatherlink.com 1.10,2013-02-09 22:45:00,
2013-02-09 17:00:00,47.0,38.0,29.82,SE,140,9.0,-999.0,71,-99.99,,,0.00,weatherlink.com 1.10,2013-02-09 23:00:00,
2013-02-09 17:16:00,46.6,38.0,29.81,SE,130,5.0,-999.0,71,-99.99,,,0.00,weatherlink.com 1.10,2013-02-09 23:16:00,
2013-02-09 17:31:00,45.3,37.0,29.82,SE,127,7.0,-999.0,73,-99.99,,,0.00,weatherlink.com 1.10,2013-02-09 23:31:00,
2013-02-09 17:46:00,44.1,37.0,29.81,SE,126,10.0,-999.0,76,-99.99,,,0.00,weatherlink.com 1.10,2013-02-09 23:46:00,
2013-02-09 18:01:00,43.6,37.0,29.81,ESE,119,5.0,-999.0,77,-99.99,,,0.00,weatherlink.com 1.10,2013-02-10 00:01:00,
2013-02-09 18:16:00,42.4,38.0,29.81,SE,133,10.0,-999.0,83,-99.99,,,0.00,weatherlink.com 1.10,2013-02-10 00:16:00,
2013-02-09 18:31:00,42.2,36.0,29.82,SE,146,12.0,-999.0,78,-99.99,,,0.00,weatherlink.com 1.10,2013-02-10 00:31:00,
2013-02-09 18:46:00,42.1,36.0,29.82,SE,129,12.0,-999.0,78,-99.99,,,0.00,weatherlink.com 1.10,2013-02-10 00:46:00,
2013-02-09 19:01:00,41.5,35.0,29.81,SE,126,15.0,-999.0,79,-99.99,,,0.00,weatherlink.com 1.10,2013-02-10 01:01:00,
2013-02-09 19:16:00,41.2,35.0,29.80,SE,126,9.0,-999.0,79,-99.99,,,0.00,weatherlink.com 1.10,2013-02-10 01:16:00,
2013-02-09 19:31:00,40.7,35.0,29.80,SE,134,13.0,-999.0,80,-99.99,,,0.00,weatherlink.com 1.10,2013-02-10 01:31:00,
2013-02-09 19:46:00,40.3,35.0,29.80,SE,132,14.0,-999.0,82,-99.99,,,0.00,weatherlink.com 1.10,2013-02-10 01:46:00,
2013-02-09 20:01:00,40.1,35.0,29.79,ESE,117,14.0,-999.0,82,-99.99,,,0.00,weatherlink.com 1.10,2013-02-10 02:01:00,
2013-02-09 20:16:00,40.0,35.0,29.79,ESE,122,11.0,-999.0,81,-99.99,,,0.00,weatherlink.com 1.10,2013-02-10 02:16:00,
2013-02-09 20:31:00,39.5,36.0,29.78,ESE,111,12.0,-999.0,86,-99.99,,,0.00,weatherlink.com 1.10,2013-02-10 02:31:00,
2013-02-09 20:46:00,39.0,36.0,29.77,SE,143,12.0,-999.0,87,-99.99,,,0.00,weatherlink.com 1.10,2013-02-10 02:46:00,
2013-02-09 21:01:00,38.9,35.0,29.77,ESE,110,10.0,-999.0,87,-99.99,,,0.00,weatherlink.com 1.10,2013-02-10 03:01:00,
2013-02-09 21:16:00,38.9,35.0,29.76,ESE,120,13.0,-999.0,87,-99.99,,,0.00,weatherlink.com 1.10,2013-02-10 03:16:00,
2013-02-09 21:31:00,38.8,35.0,29.76,SE,135,11.0,-999.0,87,-99.99,,,0.00,weatherlink.com 1.10,2013-02-10 03:31:00,
2013-02-09 21:46:00,38.7,35.0,29.74,ESE,117,10.0,-999.0,87,-99.99,,,0.00,weatherlink.com 1.10,2013-02-10 03:46:00,
2013-02-09 22:01:00,38.6,35.0,29.73,SE,125,11.0,-999.0,87,-99.99,,,0.00,weatherlink.com 1.10,2013-02-10 04:01:00,
2013-02-09 22:16:00,38.8,35.0,29.73,SE,131,15.0,-999.0,87,-99.99,,,0.00,weatherlink.com 1.10,2013-02-10 04:16:00,
2013-02-09 22:31:00,39.0,35.0,29.72,SE,126,16.0,-999.0,86,-99.99,,,0.00,weatherlink.com 1.10,2013-02-10 04:31:00,
2013-02-09 22:46:00,39.1,35.0,29.71,SE,128,13.0,-999.0,85,-99.99,,,0.00,weatherlink.com 1.10,2013-02-10 04:46:00,
2013-02-09 23:01:00,39.0,35.0,29.71,ESE,119,12.0,-999.0,86,-99.99,,,0.00,weatherlink.com 1.10,2013-02-10 05:01:00,
2013-02-09 23:16:00,39.0,35.0,29.71,ESE,121,12.0,-999.0,85,-99.99,,,0.00,weatherlink.com 1.10,2013-02-10 05:16:00,
2013-02-09 23:31:00,39.2,35.0,29.73,SE,133,10.0,-999.0,85,-99.99,,,0.00,weatherlink.com 1.10,2013-02-10 05:31:00,
2013-02-09 23:46:00,39.3,35.0,29.73,SE,132,5.0,-999.0,84,-99.99,,,0.00,weatherlink.com 1.10,2013-02-10 05:46:00,